sensor_id;sensor_type;location;lat;lon;timestamp;pressure;altitude;pressure_sealevel;temperature;humidity
1736;BME280;865;53.672;10.250;2023-07-31T00:01:53;100012.69;;;13.55;100.00
1736;BME280;865;53.672;10.250;2023-07-31T00:04:19;100015.16;;;13.58;100.00
1736;BME280;865;53.672;10.250;2023-07-31T00:06:46;100011.66;;;13.59;100.00
1736;BME280;865;53.672;10.250;2023-07-31T00:09:12;100002.47;;;13.49;100.00
1736;BME280;865;53.672;10.250;2023-07-31T00:11:39;99997.75;;;13.57;100.00
1736;BME280;865;53.672;10.250;2023-07-31T00:14:05;99999.19;;;13.44;100.00
1736;BME280;865;53.672;10.250;2023-07-31T00:16:32;99999.72;;;13.52;100.00
1736;BME280;865;53.672;10.250;2023-07-31T00:18:59;99999.00;;;13.49;100.00
1736;BME280;865;53.672;10.250;2023-07-31T00:21:25;99993.56;;;13.53;100.00
1736;BME280;865;53.672;10.250;2023-07-31T00:23:52;99994.63;;;13.49;100.00
1736;BME280;865;53.672;10.250;2023-07-31T00:26:18;99995.41;;;13.51;100.00
1736;BME280;865;53.672;10.250;2023-07-31T00:28:45;99994.84;;;13.44;100.00
1736;BME280;865;53.672;10.250;2023-07-31T00:31:12;99990.31;;;13.48;100.00
1736;BME280;865;53.672;10.250;2023-07-31T00:33:38;99986.75;;;13.49;100.00
1736;BME280;865;53.672;10.250;2023-07-31T00:36:05;99976.13;;;13.52;100.00
1736;BME280;865;53.672;10.250;2023-07-31T00:38:31;99971.03;;;13.49;100.00
1736;BME280;865;53.672;10.250;2023-07-31T00:40:58;99966.22;;;13.59;100.00
1736;BME280;865;53.672;10.250;2023-07-31T00:43:24;99970.47;;;13.61;100.00
1736;BME280;865;53.672;10.250;2023-07-31T00:45:51;99973.94;;;13.62;100.00
1736;BME280;865;53.672;10.250;2023-07-31T00:48:17;99971.81;;;13.51;100.00
1736;BME280;865;53.672;10.250;2023-07-31T00:50:44;99973.13;;;13.41;100.00
1736;BME280;865;53.672;10.250;2023-07-31T00:53:11;99975.44;;;13.49;100.00
1736;BME280;865;53.672;10.250;2023-07-31T00:55:37;99966.78;;;13.47;100.00
1736;BME280;865;53.672;10.250;2023-07-31T00:58:04;99965.13;;;13.44;100.00
1736;BME280;865;53.672;10.250;2023-07-31T01:00:30;99962.25;;;13.50;100.00
1736;BME280;865;53.672;10.250;2023-07-31T01:02:57;99956.09;;;13.51;100.00
1736;BME280;865;53.672;10.250;2023-07-31T01:06:00;99951.91;;;13.47;100.00
1736;BME280;865;53.672;10.250;2023-07-31T01:08:41;99949.69;;;13.38;100.00
1736;BME280;865;53.672;10.250;2023-07-31T01:11:41;99937.56;;;13.35;100.00
1736;BME280;865;53.672;10.250;2023-07-31T01:14:09;99944.97;;;13.46;100.00
1736;BME280;865;53.672;10.250;2023-07-31T01:16:35;99945.69;;;13.29;100.00
1736;BME280;865;53.672;10.250;2023-07-31T01:19:06;99940.28;;;13.34;100.00
1736;BME280;865;53.672;10.250;2023-07-31T01:21:44;99940.13;;;13.37;100.00
1736;BME280;865;53.672;10.250;2023-07-31T01:24:34;99938.84;;;13.27;100.00
1736;BME280;865;53.672;10.250;2023-07-31T01:27:10;99936.09;;;13.30;100.00
1736;BME280;865;53.672;10.250;2023-07-31T01:29:47;99939.81;;;13.24;100.00
1736;BME280;865;53.672;10.250;2023-07-31T01:32:17;99928.25;;;13.30;100.00
1736;BME280;865;53.672;10.250;2023-07-31T01:34:45;99924.00;;;13.27;100.00
1736;BME280;865;53.672;10.250;2023-07-31T01:37:12;99933.69;;;13.23;100.00
1736;BME280;865;53.672;10.250;2023-07-31T01:39:38;99929.22;;;13.27;100.00
1736;BME280;865;53.672;10.250;2023-07-31T01:42:05;99934.31;;;13.30;100.00
1736;BME280;865;53.672;10.250;2023-07-31T01:44:31;99934.19;;;13.33;100.00
1736;BME280;865;53.672;10.250;2023-07-31T01:46:59;99934.91;;;13.37;100.00
1736;BME280;865;53.672;10.250;2023-07-31T01:49:26;99935.16;;;13.31;100.00
1736;BME280;865;53.672;10.250;2023-07-31T01:51:53;99933.69;;;13.23;100.00
1736;BME280;865;53.672;10.250;2023-07-31T01:54:19;99923.63;;;13.35;100.00
1736;BME280;865;53.672;10.250;2023-07-31T01:56:46;99929.66;;;13.37;100.00
1736;BME280;865;53.672;10.250;2023-07-31T01:59:14;99923.00;;;13.30;100.00
1736;BME280;865;53.672;10.250;2023-07-31T02:01:40;99922.44;;;13.21;100.00
1736;BME280;865;53.672;10.250;2023-07-31T02:04:07;99919.13;;;13.18;100.00
1736;BME280;865;53.672;10.250;2023-07-31T02:06:33;99917.03;;;13.26;100.00
1736;BME280;865;53.672;10.250;2023-07-31T02:08:59;99918.91;;;13.22;100.00
1736;BME280;865;53.672;10.250;2023-07-31T02:11:26;99911.19;;;13.19;100.00
1736;BME280;865;53.672;10.250;2023-07-31T02:13:52;99905.56;;;13.29;100.00
1736;BME280;865;53.672;10.250;2023-07-31T02:16:19;99903.47;;;13.37;100.00
1736;BME280;865;53.672;10.250;2023-07-31T02:18:45;99902.63;;;13.36;100.00
1736;BME280;865;53.672;10.250;2023-07-31T02:21:12;99903.31;;;13.40;100.00
1736;BME280;865;53.672;10.250;2023-07-31T02:23:39;99894.13;;;13.50;100.00
1736;BME280;865;53.672;10.250;2023-07-31T02:26:06;99895.41;;;13.41;100.00
1736;BME280;865;53.672;10.250;2023-07-31T02:28:33;99892.50;;;13.48;100.00
1736;BME280;865;53.672;10.250;2023-07-31T02:30:59;99889.44;;;13.38;100.00
1736;BME280;865;53.672;10.250;2023-07-31T02:33:26;99884.94;;;13.41;100.00
1736;BME280;865;53.672;10.250;2023-07-31T02:35:53;99879.59;;;13.43;100.00
1736;BME280;865;53.672;10.250;2023-07-31T02:38:19;99877.13;;;13.40;100.00
1736;BME280;865;53.672;10.250;2023-07-31T02:40:46;99878.69;;;13.44;100.00
1736;BME280;865;53.672;10.250;2023-07-31T02:43:12;99878.53;;;13.47;100.00
1736;BME280;865;53.672;10.250;2023-07-31T02:45:39;99874.47;;;13.41;100.00
1736;BME280;865;53.672;10.250;2023-07-31T02:48:05;99872.25;;;13.51;100.00
1736;BME280;865;53.672;10.250;2023-07-31T02:50:33;99872.88;;;13.56;100.00
1736;BME280;865;53.672;10.250;2023-07-31T02:52:59;99872.88;;;13.56;100.00
1736;BME280;865;53.672;10.250;2023-07-31T02:55:26;99877.50;;;13.51;100.00
1736;BME280;865;53.672;10.250;2023-07-31T02:57:52;99866.94;;;13.53;100.00
1736;BME280;865;53.672;10.250;2023-07-31T03:00:19;99863.59;;;13.49;100.00
1736;BME280;865;53.672;10.250;2023-07-31T03:02:45;99864.53;;;13.48;100.00
1736;BME280;865;53.672;10.250;2023-07-31T03:05:12;99863.56;;;13.51;100.00
1736;BME280;865;53.672;10.250;2023-07-31T03:07:38;99860.56;;;13.58;100.00
1736;BME280;865;53.672;10.250;2023-07-31T03:10:05;99869.22;;;13.60;100.00
1736;BME280;865;53.672;10.250;2023-07-31T03:12:32;99863.69;;;13.66;100.00
1736;BME280;865;53.672;10.250;2023-07-31T03:14:59;99872.13;;;13.54;100.00
1736;BME280;865;53.672;10.250;2023-07-31T03:17:25;99863.28;;;13.57;100.00
1736;BME280;865;53.672;10.250;2023-07-31T03:19:52;99864.25;;;13.54;100.00
1736;BME280;865;53.672;10.250;2023-07-31T03:22:18;99856.75;;;13.65;100.00
1736;BME280;865;53.672;10.250;2023-07-31T03:24:45;99859.28;;;13.67;100.00
1736;BME280;865;53.672;10.250;2023-07-31T03:27:12;99854.13;;;13.65;100.00
1736;BME280;865;53.672;10.250;2023-07-31T03:29:38;99856.94;;;13.61;100.00
1736;BME280;865;53.672;10.250;2023-07-31T03:32:05;99853.34;;;13.63;100.00
1736;BME280;865;53.672;10.250;2023-07-31T03:34:31;99840.16;;;13.65;100.00
1736;BME280;865;53.672;10.250;2023-07-31T03:36:58;99828.69;;;13.67;100.00
1736;BME280;865;53.672;10.250;2023-07-31T03:39:25;99833.47;;;13.59;100.00
1736;BME280;865;53.672;10.250;2023-07-31T03:41:51;99836.06;;;13.59;100.00
1736;BME280;865;53.672;10.250;2023-07-31T03:44:17;99832.72;;;13.75;100.00
1736;BME280;865;53.672;10.250;2023-07-31T03:46:44;99828.38;;;13.74;100.00
1736;BME280;865;53.672;10.250;2023-07-31T03:49:11;99829.75;;;13.63;100.00
1736;BME280;865;53.672;10.250;2023-07-31T03:51:37;99826.22;;;13.64;100.00
1736;BME280;865;53.672;10.250;2023-07-31T03:54:04;99825.22;;;13.67;100.00
1736;BME280;865;53.672;10.250;2023-07-31T03:56:30;99828.09;;;13.80;100.00
1736;BME280;865;53.672;10.250;2023-07-31T03:59:01;99819.78;;;13.72;100.00
1736;BME280;865;53.672;10.250;2023-07-31T04:01:27;99828.25;;;13.77;100.00
1736;BME280;865;53.672;10.250;2023-07-31T04:03:54;99822.16;;;13.76;100.00
1736;BME280;865;53.672;10.250;2023-07-31T04:06:20;99817.47;;;13.83;100.00
1736;BME280;865;53.672;10.250;2023-07-31T04:08:47;99818.34;;;13.83;100.00
1736;BME280;865;53.672;10.250;2023-07-31T04:11:13;99820.03;;;13.84;100.00
1736;BME280;865;53.672;10.250;2023-07-31T04:13:40;99812.00;;;13.87;100.00
1736;BME280;865;53.672;10.250;2023-07-31T04:16:06;99810.63;;;13.98;100.00
1736;BME280;865;53.672;10.250;2023-07-31T04:18:33;99809.47;;;14.03;100.00
1736;BME280;865;53.672;10.250;2023-07-31T04:20:59;99811.94;;;14.06;100.00
1736;BME280;865;53.672;10.250;2023-07-31T04:23:27;99808.19;;;14.12;100.00
1736;BME280;865;53.672;10.250;2023-07-31T04:25:53;99801.00;;;14.16;100.00
1736;BME280;865;53.672;10.250;2023-07-31T04:28:20;99792.38;;;14.13;100.00
1736;BME280;865;53.672;10.250;2023-07-31T04:30:47;99803.41;;;14.03;100.00
1736;BME280;865;53.672;10.250;2023-07-31T04:33:16;99795.31;;;14.07;100.00
1736;BME280;865;53.672;10.250;2023-07-31T04:35:49;99788.97;;;14.11;100.00
1736;BME280;865;53.672;10.250;2023-07-31T04:38:21;99789.47;;;14.20;100.00
1736;BME280;865;53.672;10.250;2023-07-31T04:40:48;99786.00;;;14.19;100.00
1736;BME280;865;53.672;10.250;2023-07-31T04:43:15;99789.94;;;14.28;100.00
1736;BME280;865;53.672;10.250;2023-07-31T04:45:48;99795.63;;;14.36;100.00
1736;BME280;865;53.672;10.250;2023-07-31T04:48:14;99797.50;;;14.34;100.00
1736;BME280;865;53.672;10.250;2023-07-31T04:50:41;99799.69;;;14.42;100.00
1736;BME280;865;53.672;10.250;2023-07-31T04:53:07;99796.91;;;14.27;100.00
1736;BME280;865;53.672;10.250;2023-07-31T04:55:35;99798.69;;;14.27;100.00
1736;BME280;865;53.672;10.250;2023-07-31T04:58:01;99797.78;;;14.28;100.00
1736;BME280;865;53.672;10.250;2023-07-31T05:00:28;99792.47;;;14.47;100.00
1736;BME280;865;53.672;10.250;2023-07-31T05:02:54;99802.09;;;14.46;100.00
1736;BME280;865;53.672;10.250;2023-07-31T05:05:21;99804.78;;;14.45;100.00
1736;BME280;865;53.672;10.250;2023-07-31T05:07:48;99800.22;;;14.48;100.00
1736;BME280;865;53.672;10.250;2023-07-31T05:10:14;99805.78;;;14.42;100.00
1736;BME280;865;53.672;10.250;2023-07-31T05:12:41;99801.28;;;14.46;100.00
1736;BME280;865;53.672;10.250;2023-07-31T05:15:08;99802.31;;;14.42;100.00
1736;BME280;865;53.672;10.250;2023-07-31T05:17:34;99801.31;;;14.44;100.00
1736;BME280;865;53.672;10.250;2023-07-31T05:20:01;99792.38;;;14.48;100.00
1736;BME280;865;53.672;10.250;2023-07-31T05:22:28;99803.94;;;14.44;100.00
1736;BME280;865;53.672;10.250;2023-07-31T05:24:54;99794.69;;;14.54;100.00
1736;BME280;865;53.672;10.250;2023-07-31T05:27:20;99796.56;;;14.52;100.00
1736;BME280;865;53.672;10.250;2023-07-31T05:29:47;99795.75;;;14.50;100.00
1736;BME280;865;53.672;10.250;2023-07-31T05:32:14;99798.09;;;14.56;100.00
1736;BME280;865;53.672;10.250;2023-07-31T05:34:40;99802.44;;;14.57;100.00
1736;BME280;865;53.672;10.250;2023-07-31T05:37:07;99809.81;;;14.49;100.00
1736;BME280;865;53.672;10.250;2023-07-31T05:39:33;99793.84;;;14.54;100.00
1736;BME280;865;53.672;10.250;2023-07-31T05:42:00;99792.47;;;14.64;100.00
1736;BME280;865;53.672;10.250;2023-07-31T05:44:26;99794.56;;;14.57;100.00
1736;BME280;865;53.672;10.250;2023-07-31T05:46:52;99781.81;;;14.50;100.00
1736;BME280;865;53.672;10.250;2023-07-31T05:49:19;99787.59;;;14.56;100.00
1736;BME280;865;53.672;10.250;2023-07-31T05:51:46;99784.44;;;14.67;100.00
1736;BME280;865;53.672;10.250;2023-07-31T05:54:13;99772.06;;;14.69;100.00
1736;BME280;865;53.672;10.250;2023-07-31T05:56:39;99778.81;;;14.57;100.00
1736;BME280;865;53.672;10.250;2023-07-31T05:59:06;99780.50;;;14.58;100.00
1736;BME280;865;53.672;10.250;2023-07-31T06:01:33;99771.53;;;14.63;100.00
1736;BME280;865;53.672;10.250;2023-07-31T06:03:59;99767.47;;;14.57;100.00
1736;BME280;865;53.672;10.250;2023-07-31T06:06:26;99764.75;;;14.58;100.00
1736;BME280;865;53.672;10.250;2023-07-31T06:08:52;99753.56;;;14.72;100.00
1736;BME280;865;53.672;10.250;2023-07-31T06:11:20;99755.16;;;14.75;100.00
1736;BME280;865;53.672;10.250;2023-07-31T06:13:46;99759.56;;;14.74;100.00
1736;BME280;865;53.672;10.250;2023-07-31T06:16:15;99763.66;;;14.63;100.00
1736;BME280;865;53.672;10.250;2023-07-31T06:18:43;99761.81;;;14.65;100.00
1736;BME280;865;53.672;10.250;2023-07-31T06:21:10;99763.13;;;14.73;100.00
1736;BME280;865;53.672;10.250;2023-07-31T06:23:37;99759.66;;;14.73;100.00
1736;BME280;865;53.672;10.250;2023-07-31T06:26:03;99756.94;;;14.74;100.00
1736;BME280;865;53.672;10.250;2023-07-31T06:28:31;99755.63;;;14.66;100.00
1736;BME280;865;53.672;10.250;2023-07-31T06:30:58;99755.03;;;14.61;100.00
1736;BME280;865;53.672;10.250;2023-07-31T06:33:25;99757.19;;;14.70;100.00
1736;BME280;865;53.672;10.250;2023-07-31T06:35:51;99752.09;;;14.67;100.00
1736;BME280;865;53.672;10.250;2023-07-31T06:38:22;99753.47;;;14.74;100.00
1736;BME280;865;53.672;10.250;2023-07-31T06:40:50;99762.34;;;14.71;100.00
1736;BME280;865;53.672;10.250;2023-07-31T06:43:17;99760.16;;;14.79;100.00
1736;BME280;865;53.672;10.250;2023-07-31T06:45:43;99767.94;;;14.81;100.00
1736;BME280;865;53.672;10.250;2023-07-31T06:48:10;99767.38;;;14.76;100.00
1736;BME280;865;53.672;10.250;2023-07-31T06:50:38;99770.81;;;14.76;100.00
1736;BME280;865;53.672;10.250;2023-07-31T06:53:04;99766.09;;;14.83;100.00
1736;BME280;865;53.672;10.250;2023-07-31T06:55:30;99761.09;;;14.78;100.00
1736;BME280;865;53.672;10.250;2023-07-31T06:57:57;99763.91;;;14.91;100.00
1736;BME280;865;53.672;10.250;2023-07-31T07:00:24;99754.59;;;15.01;100.00
1736;BME280;865;53.672;10.250;2023-07-31T07:02:50;99755.88;;;14.94;100.00
1736;BME280;865;53.672;10.250;2023-07-31T07:05:17;99761.41;;;15.06;100.00
1736;BME280;865;53.672;10.250;2023-07-31T07:07:44;99757.22;;;15.01;100.00
1736;BME280;865;53.672;10.250;2023-07-31T07:10:11;99761.31;;;15.07;100.00
1736;BME280;865;53.672;10.250;2023-07-31T07:12:37;99767.94;;;15.14;100.00
1736;BME280;865;53.672;10.250;2023-07-31T07:15:04;99771.47;;;15.13;100.00
1736;BME280;865;53.672;10.250;2023-07-31T07:17:31;99769.63;;;14.99;100.00
1736;BME280;865;53.672;10.250;2023-07-31T07:19:57;99764.72;;;15.09;100.00
1736;BME280;865;53.672;10.250;2023-07-31T07:22:25;99764.44;;;15.14;100.00
1736;BME280;865;53.672;10.250;2023-07-31T07:24:52;99772.31;;;15.14;100.00
1736;BME280;865;53.672;10.250;2023-07-31T07:27:18;99774.03;;;15.15;100.00
1736;BME280;865;53.672;10.250;2023-07-31T07:29:46;99768.34;;;15.07;100.00
1736;BME280;865;53.672;10.250;2023-07-31T07:32:13;99770.13;;;15.06;100.00
1736;BME280;865;53.672;10.250;2023-07-31T07:34:39;99764.44;;;15.14;100.00
1736;BME280;865;53.672;10.250;2023-07-31T07:37:06;99764.78;;;15.08;100.00
1736;BME280;865;53.672;10.250;2023-07-31T07:39:32;99757.22;;;15.01;100.00
1736;BME280;865;53.672;10.250;2023-07-31T07:41:59;99755.31;;;15.05;100.00
1736;BME280;865;53.672;10.250;2023-07-31T07:44:25;99749.97;;;15.07;100.00
1736;BME280;865;53.672;10.250;2023-07-31T07:46:52;99742.41;;;15.00;100.00
1736;BME280;865;53.672;10.250;2023-07-31T07:49:19;99738.09;;;14.99;100.00
1736;BME280;865;53.672;10.250;2023-07-31T07:51:49;99732.31;;;14.93;100.00
1736;BME280;865;53.672;10.250;2023-07-31T07:54:15;99731.97;;;14.99;100.00
1736;BME280;865;53.672;10.250;2023-07-31T07:56:46;99723.53;;;15.10;100.00
1736;BME280;865;53.672;10.250;2023-07-31T07:59:13;99718.78;;;15.16;100.00
1736;BME280;865;53.672;10.250;2023-07-31T08:01:39;99712.84;;;15.13;100.00
1736;BME280;865;53.672;10.250;2023-07-31T08:04:06;99713.13;;;15.08;100.00
1736;BME280;865;53.672;10.250;2023-07-31T08:06:32;99711.44;;;15.23;100.00
1736;BME280;865;53.672;10.250;2023-07-31T08:08:59;99703.69;;;15.20;100.00
1736;BME280;865;53.672;10.250;2023-07-31T08:11:32;99708.69;;;15.24;100.00
1736;BME280;865;53.672;10.250;2023-07-31T08:13:58;99699.13;;;15.23;100.00
1736;BME280;865;53.672;10.250;2023-07-31T08:16:25;99703.00;;;15.16;100.00
1736;BME280;865;53.672;10.250;2023-07-31T08:18:51;99695.31;;;15.29;100.00
1736;BME280;865;53.672;10.250;2023-07-31T08:21:18;99694.78;;;15.22;100.00
1736;BME280;865;53.672;10.250;2023-07-31T08:23:45;99704.97;;;15.13;100.00
1736;BME280;865;53.672;10.250;2023-07-31T08:26:15;99695.31;;;15.29;100.00
1736;BME280;865;53.672;10.250;2023-07-31T08:28:42;99699.13;;;15.23;100.00
1736;BME280;865;53.672;10.250;2023-07-31T08:31:08;99684.97;;;15.26;100.00
1736;BME280;865;53.672;10.250;2023-07-31T08:33:35;99675.72;;;15.19;100.00
1736;BME280;865;53.672;10.250;2023-07-31T08:36:03;99667.59;;;15.23;100.00
1736;BME280;865;53.672;10.250;2023-07-31T08:38:30;99664.28;;;15.20;100.00
1736;BME280;865;53.672;10.250;2023-07-31T08:40:57;99661.53;;;15.37;100.00
1736;BME280;865;53.672;10.250;2023-07-31T08:43:26;99659.69;;;15.39;100.00
1736;BME280;865;53.672;10.250;2023-07-31T08:45:54;99666.13;;;15.34;100.00
1736;BME280;865;53.672;10.250;2023-07-31T08:48:22;99666.25;;;15.32;100.00
1736;BME280;865;53.672;10.250;2023-07-31T08:50:50;99655.56;;;15.35;100.00
1736;BME280;865;53.672;10.250;2023-07-31T08:53:16;99660.09;;;15.47;100.00
1736;BME280;865;53.672;10.250;2023-07-31T08:55:44;99655.56;;;15.65;100.00
1736;BME280;865;53.672;10.250;2023-07-31T08:58:12;99655.13;;;15.73;100.00
1736;BME280;865;53.672;10.250;2023-07-31T09:00:39;99655.72;;;15.78;100.00
1736;BME280;865;53.672;10.250;2023-07-31T09:03:13;99666.16;;;15.64;100.00
1736;BME280;865;53.672;10.250;2023-07-31T09:05:45;99662.28;;;15.55;100.00
1736;BME280;865;53.672;10.250;2023-07-31T09:08:13;99661.25;;;15.58;100.00
1736;BME280;865;53.672;10.250;2023-07-31T09:10:45;99659.53;;;15.72;100.00
1736;BME280;865;53.672;10.250;2023-07-31T09:13:16;99663.44;;;15.81;100.00
1736;BME280;865;53.672;10.250;2023-07-31T09:15:45;99655.66;;;15.94;100.00
1736;BME280;865;53.672;10.250;2023-07-31T09:18:12;99642.03;;;15.87;100.00
1736;BME280;865;53.672;10.250;2023-07-31T09:20:40;99644.13;;;16.11;100.00
1736;BME280;865;53.672;10.250;2023-07-31T09:23:12;99657.66;;;16.05;100.00
1736;BME280;865;53.672;10.250;2023-07-31T09:25:40;99665.28;;;16.09;100.00
1736;BME280;865;53.672;10.250;2023-07-31T09:28:10;99668.66;;;16.11;100.00
1736;BME280;865;53.672;10.250;2023-07-31T09:30:50;99671.75;;;16.04;100.00
1736;BME280;865;53.672;10.250;2023-07-31T09:33:18;99687.34;;;16.07;100.00
1736;BME280;865;53.672;10.250;2023-07-31T09:35:45;99686.41;;;16.08;100.00
1736;BME280;865;53.672;10.250;2023-07-31T09:38:14;99684.34;;;16.13;100.00
1736;BME280;865;53.672;10.250;2023-07-31T09:40:46;99676.81;;;16.07;100.00
1736;BME280;865;53.672;10.250;2023-07-31T09:43:16;99673.34;;;16.06;100.00
1736;BME280;865;53.672;10.250;2023-07-31T09:45:44;99667.81;;;16.11;100.00
1736;BME280;865;53.672;10.250;2023-07-31T09:48:19;99667.25;;;16.20;100.00
1736;BME280;865;53.672;10.250;2023-07-31T09:50:47;99658.88;;;16.13;100.00
1736;BME280;865;53.672;10.250;2023-07-31T09:53:15;99663.84;;;16.04;100.00
1736;BME280;865;53.672;10.250;2023-07-31T09:55:42;99665.31;;;15.93;100.00
1736;BME280;865;53.672;10.250;2023-07-31T09:58:10;99663.94;;;16.02;100.00
1736;BME280;865;53.672;10.250;2023-07-31T10:00:38;99655.88;;;16.05;100.00
1736;BME280;865;53.672;10.250;2023-07-31T10:03:07;99661.41;;;16.01;100.00
1736;BME280;865;53.672;10.250;2023-07-31T10:05:36;99661.66;;;15.96;100.00
1736;BME280;865;53.672;10.250;2023-07-31T10:08:03;99657.38;;;16.09;100.00
1736;BME280;865;53.672;10.250;2023-07-31T10:10:30;99656.72;;;16.20;100.00
1736;BME280;865;53.672;10.250;2023-07-31T10:12:58;99653.53;;;16.29;100.00
1736;BME280;865;53.672;10.250;2023-07-31T10:15:25;99655.72;;;16.37;100.00
1736;BME280;865;53.672;10.250;2023-07-31T10:17:53;99655.44;;;16.27;100.00
1736;BME280;865;53.672;10.250;2023-07-31T10:20:21;99660.28;;;16.05;100.00
1736;BME280;865;53.672;10.250;2023-07-31T10:22:48;99673.13;;;15.95;100.00
1736;BME280;865;53.672;10.250;2023-07-31T10:25:15;99678.25;;;15.82;100.00
1736;BME280;865;53.672;10.250;2023-07-31T10:27:43;99674.06;;;15.94;100.00
1736;BME280;865;53.672;10.250;2023-07-31T10:30:12;99672.66;;;15.88;100.00
1736;BME280;865;53.672;10.250;2023-07-31T10:32:45;99659.78;;;15.84;100.00
1736;BME280;865;53.672;10.250;2023-07-31T10:35:12;99660.91;;;15.80;100.00
1736;BME280;865;53.672;10.250;2023-07-31T10:37:40;99661.56;;;15.83;100.00
1736;BME280;865;53.672;10.250;2023-07-31T10:40:18;99648.81;;;15.91;100.00
1736;BME280;865;53.672;10.250;2023-07-31T10:42:54;99633.72;;;16.09;100.00
1736;BME280;865;53.672;10.250;2023-07-31T10:48:01;99639.97;;;15.92;100.00
1736;BME280;865;53.672;10.250;2023-07-31T10:50:30;99632.91;;;15.93;100.00
1736;BME280;865;53.672;10.250;2023-07-31T10:52:59;99635.56;;;15.93;100.00
1736;BME280;865;53.672;10.250;2023-07-31T10:55:30;99623.72;;;16.00;100.00
1736;BME280;865;53.672;10.250;2023-07-31T10:58:05;99626.19;;;16.03;100.00
1736;BME280;865;53.672;10.250;2023-07-31T11:00:32;99626.09;;;16.05;100.00
1736;BME280;865;53.672;10.250;2023-07-31T11:03:07;99639.59;;;15.99;100.00
1736;BME280;865;53.672;10.250;2023-07-31T11:05:43;99646.91;;;15.93;100.00
1736;BME280;865;53.672;10.250;2023-07-31T11:08:13;99647.28;;;15.87;100.00
1736;BME280;865;53.672;10.250;2023-07-31T11:10:40;99648.88;;;15.60;100.00
1736;BME280;865;53.672;10.250;2023-07-31T11:13:07;99642.78;;;15.59;100.00
1736;BME280;865;53.672;10.250;2023-07-31T11:15:33;99645.28;;;15.31;100.00
1736;BME280;865;53.672;10.250;2023-07-31T11:18:01;99639.97;;;15.32;100.00
1736;BME280;865;53.672;10.250;2023-07-31T11:20:30;99634.84;;;15.45;100.00
1736;BME280;865;53.672;10.250;2023-07-31T11:23:06;99635.50;;;15.48;100.00
1736;BME280;865;53.672;10.250;2023-07-31T11:25:33;99632.69;;;15.52;100.00
1736;BME280;865;53.672;10.250;2023-07-31T11:30:30;99619.25;;;15.42;100.00
1736;BME280;865;53.672;10.250;2023-07-31T11:32:57;99611.91;;;15.63;100.00
1736;BME280;865;53.672;10.250;2023-07-31T11:35:23;99622.31;;;15.34;100.00
1736;BME280;865;53.672;10.250;2023-07-31T11:37:50;99615.53;;;15.30;100.00
1736;BME280;865;53.672;10.250;2023-07-31T11:40:16;99608.81;;;15.40;100.00
1736;BME280;865;53.672;10.250;2023-07-31T11:42:44;99600.38;;;15.35;100.00
1736;BME280;865;53.672;10.250;2023-07-31T11:45:11;99610.88;;;15.19;100.00
1736;BME280;865;53.672;10.250;2023-07-31T11:47:37;99601.16;;;15.21;100.00
1736;BME280;865;53.672;10.250;2023-07-31T11:50:05;99598.84;;;15.31;100.00
1736;BME280;865;53.672;10.250;2023-07-31T11:52:40;99609.66;;;14.95;100.00
1736;BME280;865;53.672;10.250;2023-07-31T11:55:09;99607.81;;;14.97;100.00
1736;BME280;865;53.672;10.250;2023-07-31T11:57:38;99610.41;;;14.65;100.00
1736;BME280;865;53.672;10.250;2023-07-31T12:00:07;99608.66;;;14.48;100.00
1736;BME280;865;53.672;10.250;2023-07-31T12:02:35;99608.16;;;14.42;100.00
1736;BME280;865;53.672;10.250;2023-07-31T12:05:02;99612.34;;;14.46;100.00
1736;BME280;865;53.672;10.250;2023-07-31T12:07:43;99595.69;;;14.63;100.00
1736;BME280;865;53.672;10.250;2023-07-31T12:10:10;99598.69;;;14.72;100.00
1736;BME280;865;53.672;10.250;2023-07-31T12:12:36;99596.19;;;14.69;100.00
1736;BME280;865;53.672;10.250;2023-07-31T12:15:14;99597.03;;;14.86;100.00
1736;BME280;865;53.672;10.250;2023-07-31T12:17:40;99596.53;;;14.79;100.00
1736;BME280;865;53.672;10.250;2023-07-31T12:20:08;99608.88;;;14.93;100.00
1736;BME280;865;53.672;10.250;2023-07-31T12:22:35;99608.91;;;14.77;100.00
1736;BME280;865;53.672;10.250;2023-07-31T12:25:01;99597.63;;;15.07;100.00
1736;BME280;865;53.672;10.250;2023-07-31T12:27:32;99593.50;;;15.17;100.00
1736;BME280;865;53.672;10.250;2023-07-31T12:29:59;99591.41;;;15.23;100.00
1736;BME280;865;53.672;10.250;2023-07-31T12:32:25;99598.47;;;15.37;100.00
1736;BME280;865;53.672;10.250;2023-07-31T12:34:55;99604.09;;;15.31;100.00
1736;BME280;865;53.672;10.250;2023-07-31T12:37:24;99607.72;;;15.28;100.00
1736;BME280;865;53.672;10.250;2023-07-31T12:39:51;99600.38;;;15.49;100.00
1736;BME280;865;53.672;10.250;2023-07-31T12:42:18;99598.72;;;15.48;100.00
1736;BME280;865;53.672;10.250;2023-07-31T12:44:44;99601.25;;;15.50;100.00
1736;BME280;865;53.672;10.250;2023-07-31T12:47:11;99598.53;;;15.52;100.00
1736;BME280;865;53.672;10.250;2023-07-31T12:49:37;99593.81;;;15.42;100.00
1736;BME280;865;53.672;10.250;2023-07-31T12:52:04;99599.59;;;15.33;100.00
1736;BME280;865;53.672;10.250;2023-07-31T12:54:30;99605.81;;;15.32;100.00
1736;BME280;865;53.672;10.250;2023-07-31T12:56:57;99602.94;;;15.51;100.00
1736;BME280;865;53.672;10.250;2023-07-31T12:59:24;99595.00;;;15.37;100.00
1736;BME280;865;53.672;10.250;2023-07-31T13:01:51;99592.69;;;15.46;100.00
1736;BME280;865;53.672;10.250;2023-07-31T13:04:17;99590.19;;;15.59;100.00
1736;BME280;865;53.672;10.250;2023-07-31T13:06:44;99600.56;;;15.46;100.00
1736;BME280;865;53.672;10.250;2023-07-31T13:09:11;99599.66;;;15.47;100.00
1736;BME280;865;53.672;10.250;2023-07-31T13:11:38;99591.22;;;15.57;100.00
1736;BME280;865;53.672;10.250;2023-07-31T13:14:04;99600.72;;;15.59;100.00
1736;BME280;865;53.672;10.250;2023-07-31T13:16:31;99597.81;;;15.64;100.00
1736;BME280;865;53.672;10.250;2023-07-31T13:18:57;99583.91;;;15.62;100.00